createdAt,value
2018-09-29T00:01:22.580Z,103128.09
2018-09-29T00:03:51.371Z,103130.25
2018-09-29T00:06:20.220Z,103132.73
2018-09-29T00:08:49.038Z,103137.11
2018-09-29T00:11:17.944Z,103137.41
2018-09-29T00:13:46.738Z,103140.09
2018-09-29T00:16:15.595Z,103131.95
2018-09-29T00:18:44.381Z,103125.16
2018-09-29T00:21:13.232Z,103123.01
2018-09-29T00:23:42.079Z,103122.45
2018-09-29T00:26:10.920Z,103112.42
2018-09-29T00:28:39.716Z,103108.37
2018-09-29T00:31:08.564Z,103114.34
2018-09-29T00:33:38.432Z,103113.54
2018-09-29T00:36:07.389Z,103121.63
2018-09-29T00:38:36.168Z,103117.30
2018-09-29T00:41:04.975Z,103111.91
2018-09-29T00:43:34.073Z,103109.46
2018-09-29T00:46:02.992Z,103112.47
2018-09-29T00:48:33.115Z,103113.05
2018-09-29T00:51:01.924Z,103120.91
2018-09-29T00:53:30.763Z,103117.63
2018-09-29T00:55:59.624Z,103127.39
2018-09-29T00:58:28.468Z,103125.53
2018-09-29T01:00:57.780Z,103126.34
2018-09-29T01:03:26.624Z,103127.71
2018-09-29T01:05:55.451Z,103131.23
2018-09-29T01:08:24.300Z,103133.39
2018-09-29T01:10:53.108Z,103137.19
2018-09-29T01:13:22.011Z,103128.80
2018-09-29T01:15:50.801Z,103136.38
2018-09-29T01:18:19.959Z,103141.28
2018-09-29T01:20:48.814Z,103136.40
2018-09-29T01:23:17.668Z,103136.91
2018-09-29T01:25:46.523Z,103128.79
2018-09-29T01:28:15.411Z,103127.16
2018-09-29T01:30:44.200Z,103129.33
2018-09-29T01:33:12.988Z,103127.44
2018-09-29T01:35:41.809Z,103119.30
2018-09-29T01:38:10.659Z,103120.11
2018-09-29T01:40:39.487Z,103117.64
2018-09-29T01:43:08.280Z,103124.67
2018-09-29T01:45:37.371Z,103115.73
2018-09-29T01:48:06.189Z,103126.59
2018-09-29T01:50:35.144Z,103125.74
2018-09-29T01:53:04.015Z,103127.94
2018-09-29T01:55:32.900Z,103117.61
2018-09-29T01:58:01.687Z,103107.03
2018-09-29T02:00:30.546Z,103112.20
2018-09-29T02:03:03.893Z,103120.89
2018-09-29T02:05:32.783Z,103119.55
2018-09-29T02:08:01.640Z,103109.52
2018-09-29T02:10:30.882Z,103106.83
2018-09-29T02:13:00.301Z,103105.20
2018-09-29T02:15:29.221Z,103105.75
2018-09-29T02:17:58.024Z,103102.76
2018-09-29T02:20:26.905Z,103101.13
2018-09-29T02:22:56.038Z,103106.55
2018-09-29T02:25:25.391Z,103101.67
2018-09-29T02:27:54.183Z,103104.94
2018-09-29T02:30:23.003Z,103103.84
2018-09-29T02:32:51.846Z,103100.86
2018-09-29T02:35:20.937Z,103099.77
2018-09-29T02:37:49.869Z,103095.44
2018-09-29T02:40:18.689Z,103084.88
2018-09-29T02:42:47.499Z,103092.12
2018-09-29T02:45:16.295Z,103086.72
2018-09-29T02:47:45.124Z,103091.11
2018-09-29T02:50:13.967Z,103091.64
2018-09-29T02:52:42.792Z,103085.16
2018-09-29T02:55:11.627Z,103091.12
2018-09-29T02:57:40.489Z,103095.70
2018-09-29T03:00:09.276Z,103105.48
2018-09-29T03:02:38.164Z,103104.66
2018-09-29T03:05:07.016Z,103107.59
2018-09-29T03:07:37.880Z,103111.98
2018-09-29T03:10:06.748Z,103114.41
2018-09-29T03:12:35.559Z,103111.69
2018-09-29T03:15:04.601Z,103107.36
2018-09-29T03:17:33.451Z,103103.83
2018-09-29T03:20:02.240Z,103108.96
2018-09-29T03:22:31.698Z,103104.87
2018-09-29T03:25:00.493Z,103108.39
2018-09-29T03:27:29.438Z,103121.67
2018-09-29T03:29:58.264Z,103116.00
2018-09-29T03:32:27.077Z,103112.72
2018-09-29T03:34:55.929Z,103106.80
2018-09-29T03:37:24.727Z,103102.95
2018-09-29T03:39:53.904Z,103100.22
2018-09-29T03:42:22.691Z,103095.06
2018-09-29T03:44:52.435Z,103084.56
2018-09-29T03:47:21.199Z,103076.63
2018-09-29T03:49:50.065Z,103080.91
2018-09-29T03:52:18.988Z,103070.78
2018-09-29T03:54:47.989Z,103064.28
2018-09-29T03:57:16.796Z,103071.28
2018-09-29T03:59:45.631Z,103067.77
2018-09-29T04:02:14.453Z,103071.31
2018-09-29T04:04:43.353Z,103075.65
2018-09-29T04:07:12.146Z,103078.36
2018-09-29T04:09:40.972Z,103072.05
2018-09-29T04:12:09.778Z,103074.51
2018-09-29T04:14:38.624Z,103078.31
2018-09-29T04:17:07.604Z,103073.37
2018-09-29T04:19:36.461Z,103076.30
2018-09-29T04:22:05.351Z,103082.80
2018-09-29T04:24:34.288Z,103077.34
2018-09-29T04:27:03.110Z,103081.42
2018-09-29T04:29:31.996Z,103084.93
2018-09-29T04:32:00.834Z,103095.73
2018-09-29T04:34:29.627Z,103098.48
2018-09-29T04:36:58.453Z,103099.52
2018-09-29T04:39:27.288Z,103108.24
2018-09-29T04:41:56.164Z,103107.36
2018-09-29T04:44:24.947Z,103113.64
2018-09-29T04:46:53.795Z,103113.33
2018-09-29T04:49:22.551Z,103111.00
2018-09-29T04:51:51.371Z,103105.38
2018-09-29T04:54:20.192Z,103113.55
2018-09-29T04:56:49.084Z,103102.92
2018-09-29T04:59:17.875Z,103108.44
2018-09-29T05:01:46.699Z,103108.93
2018-09-29T05:04:16.026Z,103101.14
2018-09-29T05:06:44.900Z,103107.63
2018-09-29T05:09:13.716Z,103107.88
2018-09-29T05:11:42.543Z,103101.76
2018-09-29T05:14:11.356Z,103097.88
2018-09-29T05:16:40.229Z,103098.05
2018-09-29T05:19:09.437Z,103099.33
2018-09-29T05:21:38.303Z,103092.83
2018-09-29T05:24:07.271Z,103085.23
2018-09-29T05:26:36.324Z,103088.64
2018-09-29T05:29:05.167Z,103088.93
2018-09-29T05:31:34.061Z,103100.83
2018-09-29T05:34:02.895Z,103092.15
2018-09-29T05:36:31.715Z,103095.69
2018-09-29T05:39:00.583Z,103092.16
2018-09-29T05:41:29.396Z,103090.64
2018-09-29T05:43:58.425Z,103099.55
2018-09-29T05:46:27.201Z,103100.59
2018-09-29T05:48:56.037Z,103095.77
2018-09-29T05:51:25.129Z,103086.67
2018-09-29T05:53:53.950Z,103097.41
2018-09-29T05:56:22.940Z,103100.15
2018-09-29T05:58:51.839Z,103100.06
2018-09-29T06:01:20.620Z,103102.80
2018-09-29T06:03:49.445Z,103105.08
2018-09-29T06:06:18.241Z,103098.53
2018-09-29T06:08:47.128Z,103107.19
2018-09-29T06:11:16.334Z,103106.13
2018-09-29T06:13:45.165Z,103100.91
2018-09-29T06:16:13.977Z,103098.77
2018-09-29T06:18:42.841Z,103091.73
2018-09-29T06:21:11.836Z,103093.59
2018-09-29T06:23:40.700Z,103091.73
2018-09-29T06:26:09.800Z,103091.98
2018-09-29T06:28:38.571Z,103090.83
2018-09-29T06:31:07.459Z,103092.19
2018-09-29T06:33:36.364Z,103087.62
2018-09-29T06:36:05.267Z,103080.82
2018-09-29T06:38:34.413Z,103088.63
2018-09-29T06:41:03.531Z,103088.77
2018-09-29T06:43:32.545Z,103093.55
2018-09-29T06:46:01.456Z,103093.19
2018-09-29T06:48:30.274Z,103091.37
2018-09-29T06:50:59.096Z,103097.70
2018-09-29T06:53:27.891Z,103099.02
2018-09-29T06:55:56.790Z,103096.35
2018-09-29T06:58:25.628Z,103086.88
2018-09-29T07:00:54.476Z,103094.14
2018-09-29T07:03:23.286Z,103091.34
2018-09-29T07:05:52.124Z,103089.38
2018-09-29T07:08:20.959Z,103096.11
2018-09-29T07:10:49.879Z,103092.21
2018-09-29T07:13:18.695Z,103090.77
2018-09-29T07:15:47.619Z,103093.50
2018-09-29T07:18:16.403Z,103094.91
2018-09-29T07:20:45.178Z,103093.18
2018-09-29T07:23:14.116Z,103103.67
2018-09-29T07:25:43.152Z,103097.44
2018-09-29T07:28:12.053Z,103105.20
2018-09-29T07:30:40.829Z,103110.02
2018-09-29T07:33:09.653Z,103107.97
2018-09-29T07:35:38.537Z,103106.96
2018-09-29T07:38:07.396Z,103105.05
2018-09-29T07:40:36.259Z,103110.69
2018-09-29T07:43:05.110Z,103115.84
2018-09-29T07:45:39.779Z,103116.52
2018-09-29T07:48:08.660Z,103121.83
2018-09-29T07:50:37.471Z,103121.23
2018-09-29T07:53:06.350Z,103121.92
2018-09-29T07:55:35.213Z,103120.66
2018-09-29T07:58:04.058Z,103131.25
2018-09-29T08:00:33.273Z,103126.41
2018-09-29T08:03:02.190Z,103132.56
2018-09-29T08:05:30.984Z,103125.95
2018-09-29T08:07:59.829Z,103130.20
2018-09-29T08:10:28.628Z,103132.02
2018-09-29T08:12:57.828Z,103124.92
2018-09-29T08:15:26.605Z,103128.78
2018-09-29T08:17:55.532Z,103129.30
2018-09-29T08:20:24.324Z,103131.89
2018-09-29T08:22:53.132Z,103129.28
2018-09-29T08:25:22.045Z,103130.33
2018-09-29T08:27:50.837Z,103128.40
2018-09-29T08:30:19.921Z,103127.73
2018-09-29T08:32:48.835Z,103128.69
2018-09-29T08:35:17.693Z,103137.51
2018-09-29T08:37:46.562Z,103128.15
2018-09-29T08:40:15.791Z,103131.08
2018-09-29T08:42:44.848Z,103132.81
2018-09-29T08:45:13.775Z,103129.05
2018-09-29T08:47:42.594Z,103132.42
2018-09-29T08:50:11.470Z,103128.31
2018-09-29T08:52:40.563Z,103129.52
2018-09-29T08:55:09.423Z,103130.78
2018-09-29T08:57:38.235Z,103131.05
2018-09-29T09:00:07.149Z,103137.28
2018-09-29T09:02:36.060Z,103135.49
2018-09-29T09:05:04.976Z,103132.42
2018-09-29T09:07:33.825Z,103134.70
2018-09-29T09:10:02.697Z,103129.02
2018-09-29T09:12:31.519Z,103130.35
2018-09-29T09:15:00.448Z,103128.80
2018-09-29T09:17:29.271Z,103131.16
2018-09-29T09:19:58.196Z,103123.55
2018-09-29T09:22:26.986Z,103123.72
2018-09-29T09:24:55.773Z,103114.91
2018-09-29T09:27:24.669Z,103117.51
2018-09-29T09:29:53.579Z,103116.61
2018-09-29T09:32:22.511Z,103114.00
2018-09-29T09:34:51.333Z,103117.20
2018-09-29T09:37:20.192Z,103118.53
2018-09-29T09:39:49.056Z,103116.08
2018-09-29T09:42:17.904Z,103112.39
2018-09-29T09:44:46.688Z,103110.19
2018-09-29T09:47:15.551Z,103103.53
2018-09-29T09:49:44.339Z,103101.55
2018-09-29T09:52:13.244Z,103098.66
2018-09-29T09:54:42.029Z,103103.05
2018-09-29T09:57:10.895Z,103098.45
2018-09-29T09:59:39.660Z,103090.94
2018-09-29T10:02:14.019Z,103087.47
2018-09-29T10:04:42.895Z,103086.08
2018-09-29T10:07:11.730Z,103088.77
2018-09-29T10:09:40.516Z,103083.25
2018-09-29T10:12:09.368Z,103086.69
2018-09-29T10:14:38.143Z,103086.58
2018-09-29T10:17:07.038Z,103076.59
2018-09-29T10:19:35.832Z,103070.75
2018-09-29T10:22:04.649Z,103066.88
2018-09-29T10:24:33.491Z,103062.01
2018-09-29T10:27:02.310Z,103061.97
2018-09-29T10:29:31.568Z,103050.87
2018-09-29T10:32:00.351Z,103047.14
2018-09-29T10:34:29.200Z,103045.64
2018-09-29T10:36:58.032Z,103049.42
2018-09-29T10:39:26.878Z,103043.47
2018-09-29T10:41:57.084Z,103042.10
2018-09-29T10:44:25.949Z,103039.97
2018-09-29T10:46:54.769Z,103043.45
2018-09-29T10:49:23.724Z,103039.04
2018-09-29T10:51:52.516Z,103030.59
2018-09-29T10:54:21.397Z,103036.95
2018-09-29T10:56:50.249Z,103034.62
2018-09-29T10:59:19.110Z,103020.61
2018-09-29T11:01:47.947Z,103021.56
2018-09-29T11:04:16.791Z,103013.77
2018-09-29T11:06:45.628Z,103013.91
2018-09-29T11:09:15.721Z,103008.61
2018-09-29T11:11:44.492Z,103006.59
2018-09-29T11:14:13.363Z,102993.87
2018-09-29T11:16:42.169Z,103000.40
2018-09-29T11:19:11.012Z,102986.55
2018-09-29T11:21:39.840Z,102987.80
2018-09-29T11:24:08.651Z,102982.04
2018-09-29T11:26:37.480Z,102995.34
2018-09-29T11:29:06.272Z,102984.67
2018-09-29T11:31:35.151Z,102977.97
2018-09-29T11:34:03.974Z,102970.66
2018-09-29T11:36:32.795Z,102964.37
2018-09-29T11:39:01.590Z,102960.55
2018-09-29T11:41:30.408Z,102961.14
2018-09-29T11:43:59.275Z,102954.60
2018-09-29T11:46:28.094Z,102959.05
2018-09-29T11:48:56.868Z,102952.25
2018-09-29T11:51:25.819Z,102940.53
2018-09-29T11:53:54.667Z,102931.26
2018-09-29T11:56:23.612Z,102930.80
2018-09-29T11:58:52.483Z,102929.42
2018-09-29T12:01:21.318Z,102931.25
2018-09-29T12:03:50.444Z,102928.73
2018-09-29T12:06:19.342Z,102928.82
2018-09-29T12:08:48.379Z,102925.03
2018-09-29T12:11:17.440Z,102918.81
2018-09-29T12:13:46.263Z,102914.02
2018-09-29T12:16:15.104Z,102910.34
2018-09-29T12:18:43.887Z,102907.59
2018-09-29T12:21:12.875Z,102903.80
2018-09-29T12:23:41.648Z,102898.97
2018-09-29T12:26:10.460Z,102892.52
2018-09-29T12:28:39.312Z,102887.28
2018-09-29T12:31:08.204Z,102879.81
2018-09-29T12:33:37.106Z,102879.02
2018-09-29T12:36:05.925Z,102879.59
2018-09-29T12:38:34.875Z,102870.17
2018-09-29T12:41:03.684Z,102865.22
2018-09-29T12:43:32.569Z,102865.11
2018-09-29T12:46:01.432Z,102862.12
2018-09-29T12:48:30.280Z,102857.08
2018-09-29T12:50:59.101Z,102856.86
2018-09-29T12:53:27.938Z,102852.95
2018-09-29T12:55:56.775Z,102847.67
2018-09-29T12:58:25.710Z,102840.08
2018-09-29T13:00:54.528Z,102834.71
2018-09-29T13:03:23.367Z,102839.66
2018-09-29T13:05:52.215Z,102832.30
2018-09-29T13:08:21.036Z,102836.09
2018-09-29T13:10:49.981Z,102828.61
2018-09-29T13:13:19.104Z,102824.72
2018-09-29T13:15:47.892Z,102825.04
2018-09-29T13:18:16.696Z,102830.37
2018-09-29T13:20:45.520Z,102821.30
2018-09-29T13:23:14.356Z,102820.34
2018-09-29T13:25:43.179Z,102820.48
2018-09-29T13:28:11.984Z,102820.58
2018-09-29T13:30:40.833Z,102816.77
2018-09-29T13:33:10.208Z,102817.47
2018-09-29T13:35:39.110Z,102815.32
2018-09-29T13:38:07.872Z,102816.34
2018-09-29T13:40:36.782Z,102813.25
2018-09-29T13:43:05.640Z,102810.05
2018-09-29T13:45:34.466Z,102813.73
2018-09-29T13:48:04.316Z,102808.20
2018-09-29T13:50:33.184Z,102798.22
2018-09-29T13:53:02.691Z,102799.61
2018-09-29T13:55:31.796Z,102799.32
2018-09-29T13:58:00.690Z,102792.03
2018-09-29T14:00:29.589Z,102785.79
2018-09-29T14:02:58.684Z,102774.34
2018-09-29T14:05:27.559Z,102774.44
2018-09-29T14:07:56.632Z,102766.97
2018-09-29T14:10:26.396Z,102775.27
2018-09-29T14:12:55.305Z,102770.98
2018-09-29T14:15:24.197Z,102770.32
2018-09-29T14:17:53.062Z,102763.89
2018-09-29T14:20:21.881Z,102753.95
2018-09-29T14:22:50.713Z,102755.89
2018-09-29T14:25:19.708Z,102749.47
2018-09-29T14:27:48.566Z,102744.66
2018-09-29T14:30:17.404Z,102737.33
2018-09-29T14:32:46.252Z,102737.31
2018-09-29T14:35:15.068Z,102728.72
2018-09-29T14:37:44.016Z,102724.92
2018-09-29T14:40:12.831Z,102719.20
2018-09-29T14:42:41.945Z,102716.89
2018-09-29T14:45:10.825Z,102713.58
2018-09-29T14:47:39.662Z,102709.56
2018-09-29T14:50:08.590Z,102708.43
2018-09-29T14:52:37.431Z,102710.48
2018-09-29T14:55:06.308Z,102701.74
2018-09-29T14:57:35.193Z,102698.28
2018-09-29T15:00:04.281Z,102695.80
2018-09-29T15:02:33.197Z,102696.09
2018-09-29T15:05:02.006Z,102695.98
2018-09-29T15:07:30.864Z,102690.63
2018-09-29T15:09:59.731Z,102688.67
2018-09-29T15:12:28.883Z,102678.83
2018-09-29T15:14:58.737Z,102685.03
2018-09-29T15:17:28.064Z,102682.05
2018-09-29T15:19:57.419Z,102674.34
2018-09-29T15:22:26.382Z,102675.11
2018-09-29T15:24:55.196Z,102664.83
2018-09-29T15:27:24.126Z,102661.61
2018-09-29T15:29:53.009Z,102663.94
2018-09-29T15:32:21.851Z,102659.80
2018-09-29T15:34:51.193Z,102657.14
2018-09-29T15:37:22.124Z,102655.08
2018-09-29T15:39:51.325Z,102650.05
2018-09-29T15:42:20.145Z,102644.20
2018-09-29T15:44:49.047Z,102645.33
2018-09-29T15:47:18.121Z,102644.20
2018-09-29T15:49:46.942Z,102637.55
2018-09-29T15:52:15.904Z,102634.56
2018-09-29T15:54:44.751Z,102632.98
2018-09-29T15:57:13.600Z,102629.06
2018-09-29T15:59:42.441Z,102628.61
2018-09-29T16:02:11.237Z,102625.41
2018-09-29T16:04:40.149Z,102628.14
2018-09-29T16:07:08.933Z,102631.34
2018-09-29T16:09:37.773Z,102631.34
2018-09-29T16:12:06.596Z,102633.73
2018-09-29T16:14:35.420Z,102631.53
2018-09-29T16:17:04.332Z,102625.11
2018-09-29T16:19:33.151Z,102627.41
2018-09-29T16:22:01.988Z,102622.80
2018-09-29T16:24:30.764Z,102623.88
2018-09-29T16:26:59.622Z,102618.19
2018-09-29T16:29:28.747Z,102625.05
2018-09-29T16:31:57.926Z,102621.67
2018-09-29T16:34:26.668Z,102623.17
2018-09-29T16:36:55.487Z,102625.27
2018-09-29T16:39:24.585Z,102625.30
2018-09-29T16:41:53.500Z,102625.72
2018-09-29T16:44:22.286Z,102626.98
2018-09-29T16:46:51.136Z,102626.58
2018-09-29T16:49:19.988Z,102627.21
2018-09-29T16:51:48.818Z,102614.65
2018-09-29T16:54:17.788Z,102616.44
2018-09-29T16:56:46.641Z,102613.89
2018-09-29T16:59:15.443Z,102613.78
2018-09-29T17:01:44.275Z,102620.20
2018-09-29T17:04:13.127Z,102620.98
2018-09-29T17:06:42.048Z,102615.35
2018-09-29T17:09:11.972Z,102611.91
2018-09-29T17:11:41.108Z,102610.69
2018-09-29T17:14:09.923Z,102612.16
2018-09-29T17:16:38.719Z,102608.64
2018-09-29T17:19:07.732Z,102612.75
2018-09-29T17:21:36.525Z,102606.08
2018-09-29T17:24:05.427Z,102607.00
2018-09-29T17:26:34.237Z,102613.11
2018-09-29T17:29:03.117Z,102611.02
2018-09-29T17:31:31.958Z,102612.01
2018-09-29T17:34:00.778Z,102609.27
2018-09-29T17:36:29.581Z,102608.39
2018-09-29T17:38:58.453Z,102598.56
2018-09-29T17:41:27.251Z,102595.14
2018-09-29T17:43:56.248Z,102593.13
2018-09-29T17:46:25.072Z,102599.19
2018-09-29T17:48:53.895Z,102598.98
2018-09-29T17:51:22.750Z,102597.67
2018-09-29T17:53:51.540Z,102593.17
2018-09-29T17:56:20.462Z,102590.06
2018-09-29T17:58:49.373Z,102585.81
2018-09-29T18:01:18.169Z,102590.72
2018-09-29T18:03:47.027Z,102586.78
2018-09-29T18:06:15.848Z,102593.94
2018-09-29T18:08:44.781Z,102580.16
2018-09-29T18:11:13.597Z,102574.47
2018-09-29T18:13:42.431Z,102581.19
2018-09-29T18:16:11.257Z,102579.16
2018-09-29T18:18:40.979Z,102578.81
2018-09-29T18:21:09.907Z,102581.11
2018-09-29T18:23:38.697Z,102585.50
2018-09-29T18:26:07.623Z,102587.02
2018-09-29T18:28:36.418Z,102590.12
2018-09-29T18:31:05.252Z,102581.58
2018-09-29T18:33:34.132Z,102583.95
2018-09-29T18:36:03.056Z,102581.73
2018-09-29T18:38:31.885Z,102582.60
2018-09-29T18:41:01.072Z,102588.43
2018-09-29T18:43:29.882Z,102584.47
2018-09-29T18:45:58.877Z,102578.70
2018-09-29T18:48:28.058Z,102570.57
2018-09-29T18:50:57.715Z,102571.07
2018-09-29T18:53:26.475Z,102566.93
2018-09-29T18:55:55.702Z,102569.08
2018-09-29T18:58:24.499Z,102571.80
2018-09-29T19:00:53.274Z,102571.54
2018-09-29T19:03:22.369Z,102563.62
2018-09-29T19:05:51.193Z,102562.98
2018-09-29T19:08:20.035Z,102568.62
2018-09-29T19:10:48.998Z,102561.12
2018-09-29T19:13:17.780Z,102560.85
2018-09-29T19:15:46.580Z,102556.17
2018-09-29T19:18:15.561Z,102553.86
2018-09-29T19:20:44.392Z,102551.11
2018-09-29T19:23:13.155Z,102544.44
2018-09-29T19:25:42.256Z,102544.95
2018-09-29T19:28:11.044Z,102550.67
2018-09-29T19:30:39.843Z,102548.77
2018-09-29T19:33:08.964Z,102543.25
2018-09-29T19:35:37.856Z,102543.17
2018-09-29T19:38:06.792Z,102544.16
2018-09-29T19:40:35.915Z,102539.79
2018-09-29T19:43:04.767Z,102536.05
2018-09-29T19:45:33.613Z,102537.07
2018-09-29T19:48:02.801Z,102537.83
2018-09-29T19:50:31.628Z,102531.98
2018-09-29T19:53:00.460Z,102529.41
2018-09-29T19:55:29.560Z,102525.36
2018-09-29T19:57:58.426Z,102523.11
2018-09-29T20:00:28.493Z,102522.61
2018-09-29T20:02:57.787Z,102519.06
2018-09-29T20:05:26.731Z,102515.02
2018-09-29T20:07:55.518Z,102517.34
2018-09-29T20:10:24.577Z,102519.32
2018-09-29T20:12:53.463Z,102522.08
2018-09-29T20:15:22.272Z,102511.95
2018-09-29T20:17:51.393Z,102520.31
2018-09-29T20:20:20.211Z,102521.06
2018-09-29T20:22:49.088Z,102520.41
2018-09-29T20:25:18.232Z,102519.47
2018-09-29T20:27:47.058Z,102515.72
2018-09-29T20:30:15.896Z,102521.00
2018-09-29T20:32:44.993Z,102507.70
2018-09-29T20:35:13.855Z,102504.77
2018-09-29T20:37:42.747Z,102500.70
2018-09-29T20:40:11.890Z,102499.74
2018-09-29T20:42:40.684Z,102488.63
2018-09-29T20:45:09.499Z,102494.61
2018-09-29T20:47:38.679Z,102484.37
2018-09-29T20:50:07.579Z,102481.14
2018-09-29T20:52:36.354Z,102477.23
2018-09-29T20:55:05.769Z,102473.58
2018-09-29T20:57:34.572Z,102473.80
2018-09-29T21:00:03.592Z,102472.73
2018-09-29T21:02:32.752Z,102469.87
2018-09-29T21:05:01.572Z,102474.91
2018-09-29T21:07:30.384Z,102466.12
2018-09-29T21:09:59.827Z,102457.78
2018-09-29T21:12:28.649Z,102458.69
2018-09-29T21:14:57.444Z,102456.61
2018-09-29T21:17:26.613Z,102453.20
2018-09-29T21:19:55.456Z,102449.55
2018-09-29T21:22:24.508Z,102450.85
2018-09-29T21:24:53.556Z,102446.80
2018-09-29T21:27:22.426Z,102443.18
2018-09-29T21:29:51.253Z,102441.20
2018-09-29T21:32:20.805Z,102433.23
2018-09-29T21:34:49.602Z,102431.58
2018-09-29T21:37:18.485Z,102433.03
2018-09-29T21:39:47.335Z,102431.28
2018-09-29T21:42:16.462Z,102427.91
2018-09-29T21:44:45.227Z,102422.17
2018-09-29T21:47:14.388Z,102424.07
2018-09-29T21:49:43.255Z,102419.33
2018-09-29T21:52:12.291Z,102414.98
2018-09-29T21:54:41.427Z,102406.32
2018-09-29T21:57:10.254Z,102404.42
2018-09-29T21:59:39.051Z,102397.81
2018-09-29T22:02:08.311Z,102393.25
2018-09-29T22:04:37.181Z,102395.55
2018-09-29T22:07:06.161Z,102394.34
2018-09-29T22:09:35.259Z,102388.30
2018-09-29T22:12:04.083Z,102377.77
2018-09-29T22:14:32.952Z,102383.44
2018-09-29T22:17:02.173Z,102378.64
2018-09-29T22:19:30.972Z,102382.98
2018-09-29T22:21:59.804Z,102377.38
2018-09-29T22:24:28.952Z,102374.33
2018-09-29T22:26:57.783Z,102373.06
2018-09-29T22:29:26.569Z,102374.39
2018-09-29T22:31:56.051Z,102372.05
2018-09-29T22:34:24.749Z,102364.80
2018-09-29T22:36:53.523Z,102367.33
2018-09-29T22:39:22.713Z,102359.81
2018-09-29T22:41:51.503Z,102358.05
2018-09-29T22:44:20.299Z,102351.48
2018-09-29T22:46:49.493Z,102347.92
2018-09-29T22:49:18.356Z,102343.64
2018-09-29T22:51:47.220Z,102337.81
2018-09-29T22:54:16.371Z,102339.91
2018-09-29T22:56:45.168Z,102336.76
2018-09-29T22:59:13.947Z,102335.14
2018-09-29T23:01:43.031Z,102329.09
2018-09-29T23:04:11.984Z,102325.84
2018-09-29T23:06:40.810Z,102321.79
2018-09-29T23:09:11.380Z,102321.79
2018-09-29T23:11:40.578Z,102316.12
2018-09-29T23:14:09.391Z,102317.87
2018-09-29T23:16:38.646Z,102314.08
2018-09-29T23:19:07.515Z,102312.05
2018-09-29T23:21:36.287Z,102307.17
2018-09-29T23:24:05.437Z,102311.23
2018-09-29T23:26:34.232Z,102302.79
2018-09-29T23:29:03.102Z,102302.17
2018-09-29T23:31:32.214Z,102302.98
2018-09-29T23:34:01.008Z,102305.30
2018-09-29T23:36:29.790Z,102303.98
2018-09-29T23:38:58.859Z,102293.17
2018-09-29T23:41:27.715Z,102299.94
2018-09-29T23:43:56.486Z,102296.05
2018-09-29T23:46:25.894Z,102293.08
2018-09-29T23:48:54.693Z,102284.16
2018-09-29T23:51:23.551Z,102279.59
2018-09-29T23:53:52.756Z,102285.39
2018-09-29T23:56:21.547Z,102285.61
2018-09-29T23:58:50.343Z,102280.91
